createdAt,value
2023-04-26T00:02:28.209Z,96568.67
2023-04-26T00:04:58.311Z,96566.55
2023-04-26T00:07:26.953Z,96568.55
2023-04-26T00:09:54.982Z,96567.65
2023-04-26T00:12:23.185Z,96571.82
2023-04-26T00:15:06.666Z,96572.55
2023-04-26T00:17:34.798Z,96575.36
2023-04-26T00:20:04.333Z,96578.36
2023-04-26T00:22:32.361Z,96577.91
2023-04-26T00:25:00.375Z,96579.94
2023-04-26T00:27:28.425Z,96580.89
2023-04-26T00:29:56.788Z,96578.94
2023-04-26T00:32:24.967Z,96579.36
2023-04-26T00:34:53.085Z,96580.38
2023-04-26T00:37:21.610Z,96580.10
2023-04-26T00:39:49.786Z,96580.21
2023-04-26T00:42:19.556Z,96581.73
2023-04-26T00:44:47.772Z,96579.54
2023-04-26T00:47:15.935Z,96582.80
2023-04-26T00:49:44.536Z,96583.73
2023-04-26T00:52:14.039Z,96583.92
2023-04-26T00:54:42.419Z,96588.02
2023-04-26T00:57:12.538Z,96587.34
2023-04-26T00:59:41.640Z,96582.26
2023-04-26T01:02:09.740Z,96588.84
2023-04-26T01:04:39.924Z,96591.05
2023-04-26T01:07:08.509Z,96588.16
2023-04-26T01:09:36.584Z,96587.49
2023-04-26T01:12:06.786Z,96593.14
2023-04-26T01:14:36.965Z,96594.48
2023-04-26T01:17:06.393Z,96595.80
2023-04-26T01:19:37.724Z,96598.52
2023-04-26T01:22:05.945Z,96600.50
2023-04-26T01:24:36.217Z,96602.88
2023-04-26T01:27:05.475Z,96602.29
2023-04-26T01:29:34.058Z,96604.27
2023-04-26T01:32:02.432Z,96604.60
2023-04-26T01:34:30.886Z,96604.45
2023-04-26T01:36:58.987Z,96605.48
2023-04-26T01:39:29.618Z,96604.48
2023-04-26T01:41:58.813Z,96603.63
2023-04-26T01:44:26.884Z,96608.70
2023-04-26T01:46:54.955Z,96608.54
2023-04-26T01:49:23.435Z,96610.08
2023-04-26T01:51:52.028Z,96608.00
2023-04-26T01:54:20.089Z,96611.06
2023-04-26T01:56:48.160Z,96612.66
2023-04-26T01:59:16.174Z,96614.17
2023-04-26T02:01:44.866Z,96617.90
2023-04-26T02:04:12.995Z,96617.61
2023-04-26T02:06:42.402Z,96618.05
2023-04-26T02:09:10.484Z,96618.54
2023-04-26T02:11:41.410Z,96620.95
2023-04-26T02:14:09.465Z,96616.66
2023-04-26T02:16:40.012Z,96617.22
2023-04-26T02:19:11.110Z,96616.41
2023-04-26T02:21:57.241Z,96615.63
2023-04-26T02:24:26.099Z,96614.92
2023-04-26T02:26:54.854Z,96615.95
2023-04-26T02:29:36.392Z,96614.43
2023-04-26T02:32:13.143Z,96613.34
2023-04-26T02:34:41.481Z,96615.05
2023-04-26T02:37:09.643Z,96617.11
2023-04-26T02:39:37.714Z,96618.98
2023-04-26T02:42:13.286Z,96619.28
2023-04-26T02:44:43.073Z,96621.46
2023-04-26T02:47:11.332Z,96622.55
2023-04-26T02:49:39.313Z,96622.52
2023-04-26T02:52:07.352Z,96627.19
2023-04-26T02:54:36.070Z,96630.69
2023-04-26T02:57:04.490Z,96631.04
2023-04-26T02:59:32.732Z,96628.92
2023-04-26T03:02:00.982Z,96633.00
2023-04-26T03:04:30.511Z,96630.45
2023-04-26T03:06:58.578Z,96628.03
2023-04-26T03:09:26.856Z,96635.00
2023-04-26T03:11:55.354Z,96636.33
2023-04-26T03:14:23.819Z,96638.14
2023-04-26T03:16:52.432Z,96640.52
2023-04-26T03:19:21.394Z,96642.30
2023-04-26T03:21:49.469Z,96646.31
2023-04-26T03:24:18.021Z,96644.73
2023-04-26T03:26:46.637Z,96649.73
2023-04-26T03:29:14.931Z,96651.52
2023-04-26T03:31:43.003Z,96653.94
2023-04-26T03:34:11.785Z,96654.65
2023-04-26T03:36:39.946Z,96653.90
2023-04-26T03:39:08.224Z,96654.42
2023-04-26T03:41:39.594Z,96658.62
2023-04-26T03:44:08.292Z,96660.86
2023-04-26T03:46:36.432Z,96664.23
2023-04-26T03:49:05.117Z,96668.26
2023-04-26T03:51:33.302Z,96670.89
2023-04-26T03:54:01.623Z,96676.39
2023-04-26T03:56:30.258Z,96680.55
2023-04-26T03:58:58.303Z,96681.76
2023-04-26T04:01:27.689Z,96680.97
2023-04-26T04:03:56.235Z,96681.86
2023-04-26T04:06:24.595Z,96681.63
2023-04-26T04:08:52.928Z,96686.05
2023-04-26T04:11:21.982Z,96688.98
2023-04-26T04:13:50.174Z,96691.52
2023-04-26T04:16:18.475Z,96694.77
2023-04-26T04:18:47.204Z,96700.17
2023-04-26T04:21:15.421Z,96704.37
2023-04-26T04:23:44.541Z,96705.54
2023-04-26T04:26:14.288Z,96709.01
2023-04-26T04:28:42.569Z,96710.40
2023-04-26T04:31:10.782Z,96710.40
2023-04-26T04:33:39.109Z,96715.52
2023-04-26T04:36:08.508Z,96717.59
2023-04-26T04:38:37.614Z,96720.19
2023-04-26T04:41:08.703Z,96718.48
2023-04-26T04:43:37.462Z,96722.16
2023-04-26T04:46:05.784Z,96723.67
2023-04-26T04:48:35.734Z,96725.42
2023-04-26T04:51:03.912Z,96725.45
2023-04-26T04:53:32.103Z,96728.55
2023-04-26T04:56:01.078Z,96730.42
2023-04-26T04:58:29.246Z,96731.67
2023-04-26T05:00:58.254Z,96740.23
2023-04-26T05:03:29.714Z,96742.31
2023-04-26T05:05:57.885Z,96749.73
2023-04-26T05:08:26.457Z,96747.45
2023-04-26T05:10:56.934Z,96747.12
2023-04-26T05:13:25.362Z,96745.18
2023-04-26T05:15:54.188Z,96746.13
2023-04-26T05:18:23.050Z,96745.32
2023-04-26T05:20:51.422Z,96746.72
2023-04-26T05:23:19.560Z,96747.17
2023-04-26T05:25:47.976Z,96745.30
2023-04-26T05:28:38.876Z,96746.41
2023-04-26T05:31:39.028Z,96744.84
2023-04-26T05:34:37.404Z,96746.04
2023-04-26T05:37:05.769Z,96747.67
2023-04-26T05:39:33.944Z,96748.17
2023-04-26T05:42:03.556Z,96751.30
2023-04-26T05:44:32.436Z,96753.97
2023-04-26T05:47:00.528Z,96751.17
2023-04-26T05:49:28.685Z,96752.64
2023-04-26T05:51:56.780Z,96757.64
2023-04-26T05:54:25.143Z,96759.06
2023-04-26T05:56:53.916Z,96760.09
2023-04-26T05:59:22.094Z,96763.91
2023-04-26T06:01:50.194Z,96767.84
2023-04-26T06:04:18.511Z,96772.34
2023-04-26T06:07:00.852Z,96773.85
2023-04-26T06:09:31.819Z,96775.16
2023-04-26T06:12:00.071Z,96779.50
2023-04-26T06:14:30.712Z,96781.45
2023-04-26T06:17:02.696Z,96781.94
2023-04-26T06:19:30.942Z,96785.07
2023-04-26T06:21:59.116Z,96788.15
2023-04-26T06:24:27.483Z,96790.12
2023-04-26T06:26:55.484Z,96794.71
2023-04-26T06:29:23.656Z,96796.79
2023-04-26T06:31:51.807Z,96799.87
2023-04-26T06:34:21.006Z,96799.42
2023-04-26T06:36:49.270Z,96798.66
2023-04-26T06:39:18.422Z,96804.31
2023-04-26T06:41:46.717Z,96806.32
2023-04-26T06:44:23.121Z,96812.54
2023-04-26T06:46:55.784Z,96812.76
2023-04-26T06:49:26.021Z,96814.06
2023-04-26T06:51:54.166Z,96814.20
2023-04-26T06:54:22.273Z,96813.32
2023-04-26T06:56:50.448Z,96822.41
2023-04-26T06:59:18.511Z,96824.45
2023-04-26T07:01:46.662Z,96825.48
2023-04-26T07:04:15.627Z,96831.00
2023-04-26T07:06:44.062Z,96834.52
2023-04-26T07:09:12.645Z,96835.64
2023-04-26T07:11:40.734Z,96839.59
2023-04-26T07:14:08.789Z,96842.86
2023-04-26T07:16:37.080Z,96848.73
2023-04-26T07:19:06.573Z,96849.61
2023-04-26T07:21:34.743Z,96853.70
2023-04-26T07:24:03.255Z,96855.90
2023-04-26T07:26:31.604Z,96857.42
2023-04-26T07:29:01.106Z,96864.28
2023-04-26T07:31:29.073Z,96867.50
2023-04-26T07:33:57.561Z,96874.66
2023-04-26T07:36:26.668Z,96876.04
2023-04-26T07:38:55.037Z,96877.00
2023-04-26T07:41:23.110Z,96880.27
2023-04-26T07:43:51.348Z,96885.69
2023-04-26T07:46:19.661Z,96886.89
2023-04-26T07:48:47.938Z,96894.28
2023-04-26T07:51:15.996Z,96894.67
2023-04-26T07:53:44.076Z,96898.29
2023-04-26T07:56:12.128Z,96900.36
2023-04-26T07:58:40.161Z,96907.48
2023-04-26T08:01:08.904Z,96912.06
2023-04-26T08:03:37.281Z,96915.98
2023-04-26T08:06:05.806Z,96917.45
2023-04-26T08:08:35.244Z,96921.29
2023-04-26T08:11:08.134Z,96925.22
2023-04-26T08:13:36.532Z,96925.04
2023-04-26T08:16:05.062Z,96926.11
2023-04-26T08:18:33.821Z,96928.44
2023-04-26T08:21:02.278Z,96933.58
2023-04-26T08:23:36.550Z,96935.98
2023-04-26T08:26:04.671Z,96936.13
2023-04-26T08:28:32.906Z,96938.69
2023-04-26T08:31:00.987Z,96937.23
2023-04-26T08:33:29.085Z,96940.91
2023-04-26T08:36:00.136Z,96942.98
2023-04-26T08:38:29.902Z,96943.95
2023-04-26T08:41:03.237Z,96945.40
2023-04-26T08:43:31.513Z,96948.60
2023-04-26T08:46:01.584Z,96951.73
2023-04-26T08:48:34.433Z,96955.65
2023-04-26T08:51:03.735Z,96953.44
2023-04-26T08:53:34.418Z,96953.82
2023-04-26T08:56:02.829Z,96956.69
2023-04-26T08:58:32.444Z,96958.94
2023-04-26T09:01:03.615Z,96958.60
2023-04-26T09:03:32.216Z,96962.92
2023-04-26T09:06:03.799Z,96963.76
2023-04-26T09:08:37.123Z,96969.98
2023-04-26T09:11:05.281Z,96972.89
2023-04-26T09:13:33.378Z,96969.55
2023-04-26T09:16:03.479Z,96976.29
2023-04-26T09:18:34.290Z,96978.91
2023-04-26T09:21:08.224Z,96978.77
2023-04-26T09:23:36.945Z,96978.01
2023-04-26T09:26:21.883Z,96978.55
2023-04-26T09:28:50.952Z,96978.23
2023-04-26T09:31:38.410Z,96984.15
2023-04-26T09:34:06.993Z,96987.91
2023-04-26T09:36:57.224Z,96989.70
2023-04-26T09:39:35.271Z,96994.16
2023-04-26T09:42:07.748Z,96996.70
2023-04-26T09:44:36.536Z,96998.41
2023-04-26T09:47:12.059Z,97000.09
2023-04-26T09:49:51.910Z,97000.30
2023-04-26T09:52:20.711Z,97003.73
2023-04-26T09:54:51.906Z,97006.50
2023-04-26T09:57:24.801Z,97009.29
2023-04-26T09:59:55.712Z,97012.43
2023-04-26T10:02:28.600Z,97013.08
2023-04-26T10:05:00.162Z,97010.94
2023-04-26T10:07:30.932Z,97014.13
2023-04-26T10:09:59.343Z,97019.92
2023-04-26T10:12:28.230Z,97020.60
2023-04-26T10:14:57.732Z,97021.88
2023-04-26T10:17:26.027Z,97023.02
2023-04-26T10:19:58.071Z,97022.43
2023-04-26T10:22:31.550Z,97024.07
2023-04-26T10:25:00.164Z,97022.80
2023-04-26T10:27:43.591Z,97025.01
2023-04-26T10:30:24.876Z,97028.11
2023-04-26T10:32:56.259Z,97032.08
2023-04-26T10:35:26.447Z,97034.96
2023-04-26T10:38:00.433Z,97033.98
2023-04-26T10:40:34.044Z,97031.61
2023-04-26T10:43:12.011Z,97027.30
2023-04-26T10:45:41.997Z,97031.83
2023-04-26T10:48:18.397Z,97036.94
2023-04-26T10:51:12.885Z,97037.23
2023-04-26T10:53:46.948Z,97041.58
2023-04-26T10:56:24.145Z,97043.12
2023-04-26T10:59:22.477Z,97049.39
2023-04-26T11:02:01.128Z,97048.45
2023-04-26T11:04:51.998Z,97047.99
2023-04-26T11:07:39.527Z,97054.22
2023-04-26T11:10:11.043Z,97057.20
2023-04-26T11:12:42.345Z,97055.54
2023-04-26T11:15:12.992Z,97054.57
2023-04-26T11:17:40.943Z,97056.11
2023-04-26T11:20:17.172Z,97059.42
2023-04-26T11:22:45.708Z,97057.02
2023-04-26T11:25:14.659Z,97061.48
2023-04-26T11:27:46.254Z,97064.46
2023-04-26T11:30:14.842Z,97066.22
2023-04-26T11:32:45.995Z,97067.86
2023-04-26T11:35:15.707Z,97068.55
2023-04-26T11:37:45.947Z,97067.64
2023-04-26T11:40:16.872Z,97070.67
2023-04-26T11:42:45.654Z,97070.14
2023-04-26T11:45:16.794Z,97071.19
2023-04-26T11:47:47.781Z,97073.16
2023-04-26T11:50:16.102Z,97073.88
2023-04-26T11:52:44.484Z,97079.13
2023-04-26T11:55:12.859Z,97081.61
2023-04-26T11:57:41.128Z,97078.62
2023-04-26T12:00:14.990Z,97079.41
2023-04-26T12:02:47.588Z,97082.07
2023-04-26T12:05:26.500Z,97082.95
2023-04-26T12:07:57.187Z,97084.09
2023-04-26T12:10:35.227Z,97087.79
2023-04-26T12:13:03.773Z,97086.83
2023-04-26T12:15:33.792Z,97087.57
2023-04-26T12:18:11.454Z,97086.50
2023-04-26T12:20:42.546Z,97089.59
2023-04-26T12:23:14.901Z,97088.85
2023-04-26T12:25:56.687Z,97090.69
2023-04-26T12:28:26.490Z,97090.05
2023-04-26T12:30:55.398Z,97090.40
2023-04-26T12:33:25.458Z,97089.79
2023-04-26T12:35:53.910Z,97082.47
2023-04-26T12:38:22.274Z,97087.20
2023-04-26T12:40:50.322Z,97085.61
2023-04-26T12:43:19.846Z,97085.49
2023-04-26T12:45:47.857Z,97083.69
2023-04-26T12:48:16.803Z,97090.27
2023-04-26T12:50:46.108Z,97089.02
2023-04-26T12:53:14.200Z,97092.45
2023-04-26T12:55:42.463Z,97096.62
2023-04-26T12:58:10.842Z,97095.23
2023-04-26T13:00:39.065Z,97098.58
2023-04-26T13:03:07.989Z,97101.10
2023-04-26T13:05:36.470Z,97103.89
2023-04-26T13:08:04.868Z,97104.95
2023-04-26T13:10:33.248Z,97106.80
2023-04-26T13:13:01.731Z,97107.05
2023-04-26T13:15:30.201Z,97110.30
2023-04-26T13:17:58.530Z,97116.98
2023-04-26T13:20:28.904Z,97116.08
2023-04-26T13:22:58.478Z,97120.00
2023-04-26T13:25:26.910Z,97118.89
2023-04-26T13:27:55.728Z,97115.48
2023-04-26T13:30:23.961Z,97117.48
2023-04-26T13:32:52.816Z,97117.24
2023-04-26T13:35:21.434Z,97119.76
2023-04-26T13:37:49.814Z,97122.16
2023-04-26T13:40:18.925Z,97123.27
2023-04-26T13:42:47.075Z,97125.41
2023-04-26T13:45:16.590Z,97126.31
2023-04-26T13:47:46.004Z,97126.02
2023-04-26T13:50:14.054Z,97126.23
2023-04-26T13:52:42.233Z,97123.70
2023-04-26T13:55:10.611Z,97125.48
2023-04-26T13:57:38.712Z,97125.80
2023-04-26T14:00:08.220Z,97125.32
2023-04-26T14:02:40.163Z,97131.19
2023-04-26T14:05:09.430Z,97131.40
2023-04-26T14:07:37.746Z,97133.64
2023-04-26T14:10:06.375Z,97134.98
2023-04-26T14:12:35.217Z,97133.77
2023-04-26T14:15:05.717Z,97135.35
2023-04-26T14:17:34.305Z,97134.41
2023-04-26T14:20:02.599Z,97134.59
2023-04-26T14:22:30.788Z,97136.15
2023-04-26T14:24:59.425Z,97135.26
2023-04-26T14:27:27.626Z,97136.30
2023-04-26T14:29:56.007Z,97138.52
2023-04-26T14:32:24.325Z,97142.04
2023-04-26T14:34:52.549Z,97144.85
2023-04-26T14:37:22.948Z,97145.17
2023-04-26T14:39:51.713Z,97148.62
2023-04-26T14:42:19.696Z,97147.69
2023-04-26T14:44:47.785Z,97153.85
2023-04-26T14:47:16.089Z,97157.80
2023-04-26T14:49:44.162Z,97162.66
2023-04-26T14:52:12.328Z,97163.55
2023-04-26T14:54:41.834Z,97164.50
2023-04-26T14:57:10.547Z,97162.21
2023-04-26T14:59:38.804Z,97163.59
2023-04-26T15:02:07.332Z,97166.95
2023-04-26T15:04:37.951Z,97169.45
2023-04-26T15:07:06.735Z,97169.77
2023-04-26T15:09:34.880Z,97168.36
2023-04-26T15:12:04.891Z,97171.48
2023-04-26T15:14:33.062Z,97173.36
2023-04-26T15:17:01.204Z,97174.11
2023-04-26T15:19:29.421Z,97172.16
2023-04-26T15:21:57.591Z,97172.58
2023-04-26T15:24:26.375Z,97176.70
2023-04-26T15:26:54.648Z,97180.45
2023-04-26T15:29:22.851Z,97181.41
2023-04-26T15:31:51.245Z,97180.45
2023-04-26T15:34:20.548Z,97179.63
2023-04-26T15:36:48.533Z,97175.73
2023-04-26T15:39:16.850Z,97174.15
2023-04-26T15:41:45.657Z,97173.22
2023-04-26T15:44:13.818Z,97174.23
2023-04-26T15:46:42.729Z,97177.55
2023-04-26T15:49:11.898Z,97179.02
2023-04-26T15:51:39.975Z,97178.23
2023-04-26T15:54:08.012Z,97178.98
2023-04-26T15:56:36.735Z,97183.73
2023-04-26T15:59:04.806Z,97185.20
2023-04-26T16:01:32.920Z,97184.09
2023-04-26T16:04:01.484Z,97180.31
2023-04-26T16:06:29.938Z,97184.28
2023-04-26T16:08:58.729Z,97180.18
2023-04-26T16:11:26.911Z,97185.02
2023-04-26T16:13:55.077Z,97185.34
2023-04-26T16:16:23.192Z,97186.16
2023-04-26T16:18:51.431Z,97189.25
2023-04-26T16:21:19.493Z,97188.14
2023-04-26T16:23:49.724Z,97192.58
2023-04-26T16:26:18.095Z,97195.61
2023-04-26T16:28:46.332Z,97199.45
2023-04-26T16:31:14.400Z,97196.64
2023-04-26T16:33:42.624Z,97198.44
2023-04-26T16:36:11.105Z,97200.63
2023-04-26T16:38:39.215Z,97196.95
2023-04-26T16:41:07.342Z,97197.16
2023-04-26T16:43:36.747Z,97199.25
2023-04-26T16:46:07.082Z,97201.39
2023-04-26T16:48:37.716Z,97203.49
2023-04-26T16:51:07.855Z,97205.89
2023-04-26T16:53:37.896Z,97206.16
2023-04-26T16:56:07.109Z,97210.77
2023-04-26T16:58:35.328Z,97216.02
2023-04-26T17:01:03.430Z,97219.63
2023-04-26T17:03:31.944Z,97227.35
2023-04-26T17:06:00.355Z,97233.61
2023-04-26T17:08:28.825Z,97240.82
2023-04-26T17:10:57.009Z,97245.40
2023-04-26T17:13:29.423Z,97248.59
2023-04-26T17:15:57.878Z,97247.59
2023-04-26T17:18:26.131Z,97249.42
2023-04-26T17:20:58.001Z,97257.48
2023-04-26T17:23:28.419Z,97263.67
2023-04-26T17:26:02.133Z,97268.31
2023-04-26T17:28:31.419Z,97272.16
2023-04-26T17:30:59.497Z,97273.04
2023-04-26T17:33:27.784Z,97278.16
2023-04-26T17:35:56.348Z,97282.68
2023-04-26T17:38:24.422Z,97285.35
2023-04-26T17:40:54.268Z,97291.65
2023-04-26T17:43:22.634Z,97296.52
2023-04-26T17:45:50.853Z,97297.66
2023-04-26T17:48:19.188Z,97304.40
2023-04-26T17:50:47.526Z,97313.36
2023-04-26T17:53:16.237Z,97315.35
2023-04-26T17:55:45.227Z,97317.46
2023-04-26T17:58:13.296Z,97321.76
2023-04-26T18:00:42.095Z,97325.48
2023-04-26T18:03:12.153Z,97330.14
2023-04-26T18:05:40.937Z,97333.63
2023-04-26T18:08:09.065Z,97336.02
2023-04-26T18:10:37.149Z,97337.48
2023-04-26T18:13:05.816Z,97341.05
2023-04-26T18:15:34.004Z,97341.23
2023-04-26T18:18:05.553Z,97343.79
2023-04-26T18:20:36.869Z,97347.90
2023-04-26T18:23:04.944Z,97349.35
2023-04-26T18:25:34.813Z,97353.57
2023-04-26T18:28:03.053Z,97358.36
2023-04-26T18:30:31.452Z,97363.02
2023-04-26T18:32:59.884Z,97365.33
2023-04-26T18:35:27.984Z,97371.34
2023-04-26T18:37:56.158Z,97373.40
2023-04-26T18:40:24.353Z,97375.98
2023-04-26T18:42:54.761Z,97377.90
2023-04-26T18:45:22.935Z,97381.40
2023-04-26T18:47:52.600Z,97379.23
2023-04-26T18:50:22.647Z,97380.24
2023-04-26T18:52:50.733Z,97379.92
2023-04-26T18:55:19.229Z,97388.02
2023-04-26T18:57:48.313Z,97392.73
2023-04-26T19:00:16.961Z,97394.63
2023-04-26T19:02:45.307Z,97398.66
2023-04-26T19:05:13.777Z,97402.44
2023-04-26T19:07:42.137Z,97405.21
2023-04-26T19:10:10.938Z,97404.91
2023-04-26T19:12:44.217Z,97403.24
2023-04-26T19:15:14.849Z,97406.30
2023-04-26T19:17:42.982Z,97404.27
2023-04-26T19:20:13.270Z,97401.93
2023-04-26T19:22:46.347Z,97401.37
2023-04-26T19:25:15.128Z,97406.48
2023-04-26T19:27:43.300Z,97406.90
2023-04-26T19:30:11.881Z,97407.73
2023-04-26T19:32:40.120Z,97406.53
2023-04-26T19:35:09.947Z,97409.55
2023-04-26T19:37:38.371Z,97413.95
2023-04-26T19:40:07.629Z,97417.51
2023-04-26T19:42:36.164Z,97421.90
2023-04-26T19:45:05.123Z,97420.91
2023-04-26T19:47:33.306Z,97418.96
2023-04-26T19:50:05.018Z,97425.36
2023-04-26T19:52:33.340Z,97425.27
2023-04-26T19:55:01.717Z,97432.09
2023-04-26T19:57:34.500Z,97432.44
2023-04-26T20:00:02.701Z,97431.65
2023-04-26T20:02:35.363Z,97429.73
2023-04-26T20:05:04.059Z,97429.80
2023-04-26T20:07:32.026Z,97431.77
2023-04-26T20:10:00.091Z,97436.66
2023-04-26T20:12:28.356Z,97438.25
2023-04-26T20:14:56.274Z,97439.58
2023-04-26T20:17:24.533Z,97438.91
2023-04-26T20:19:55.193Z,97441.86
2023-04-26T20:22:23.197Z,97442.54
2023-04-26T20:24:51.266Z,97442.23
2023-04-26T20:27:19.342Z,97440.95
2023-04-26T20:29:47.458Z,97440.57
2023-04-26T20:32:15.809Z,97443.53
2023-04-26T20:34:43.966Z,97448.75
2023-04-26T20:37:12.892Z,97446.96
2023-04-26T20:39:40.883Z,97447.20
2023-04-26T20:42:09.829Z,97445.27
2023-04-26T20:44:38.312Z,97443.02
2023-04-26T20:47:06.400Z,97445.48
2023-04-26T20:49:34.462Z,97448.95
2023-04-26T20:52:02.776Z,97449.73
2023-04-26T20:54:31.978Z,97451.88
2023-04-26T20:57:00.401Z,97451.20
2023-04-26T20:59:28.464Z,97453.43
2023-04-26T21:01:56.606Z,97453.50
2023-04-26T21:04:24.964Z,97455.14
2023-04-26T21:06:53.605Z,97455.67
2023-04-26T21:09:21.785Z,97455.20
2023-04-26T21:11:49.952Z,97453.45
2023-04-26T21:14:17.988Z,97452.33
2023-04-26T21:16:46.300Z,97453.08
2023-04-26T21:19:14.388Z,97455.02
2023-04-26T21:21:42.601Z,97457.19
2023-04-26T21:24:10.687Z,97457.61
2023-04-26T21:26:38.999Z,97462.12
2023-04-26T21:29:07.946Z,97459.73
2023-04-26T21:31:36.518Z,97462.83
2023-04-26T21:34:04.757Z,97464.13
2023-04-26T21:36:33.746Z,97470.06
2023-04-26T21:39:01.706Z,97471.88
2023-04-26T21:41:29.911Z,97472.85
2023-04-26T21:43:58.897Z,97474.59
2023-04-26T21:46:26.977Z,97478.08
2023-04-26T21:48:55.129Z,97480.73
2023-04-26T21:51:23.398Z,97483.85
2023-04-26T21:53:51.408Z,97481.16
2023-04-26T21:56:19.648Z,97482.27
2023-04-26T21:58:47.819Z,97482.26
2023-04-26T22:01:15.916Z,97482.63
2023-04-26T22:03:44.367Z,97485.30
2023-04-26T22:06:12.656Z,97488.35
2023-04-26T22:08:41.438Z,97489.48
2023-04-26T22:11:09.386Z,97491.24
2023-04-26T22:13:37.502Z,97491.16
2023-04-26T22:16:06.331Z,97490.97
2023-04-26T22:18:35.597Z,97486.63
2023-04-26T22:21:03.849Z,97488.20
2023-04-26T22:23:31.909Z,97494.89
2023-04-26T22:26:00.696Z,97493.52
2023-04-26T22:28:28.980Z,97493.86
2023-04-26T22:30:56.976Z,97497.04
2023-04-26T22:33:25.131Z,97493.11
2023-04-26T22:35:58.018Z,97493.47
2023-04-26T22:38:26.800Z,97498.27
2023-04-26T22:40:54.883Z,97495.70
2023-04-26T22:43:23.663Z,97490.90
2023-04-26T22:45:51.722Z,97490.68
2023-04-26T22:48:19.806Z,97492.27
2023-04-26T22:50:50.743Z,97494.27
2023-04-26T22:53:19.119Z,97499.09
2023-04-26T22:55:47.295Z,97493.77
2023-04-26T22:58:17.185Z,97490.02
2023-04-26T23:00:45.203Z,97490.05
2023-04-26T23:03:13.242Z,97491.10
2023-04-26T23:05:41.637Z,97494.55
2023-04-26T23:08:09.704Z,97488.89
2023-04-26T23:10:40.036Z,97485.04
2023-04-26T23:13:08.102Z,97485.65
2023-04-26T23:15:36.163Z,97486.77
2023-04-26T23:18:04.390Z,97486.17
2023-04-26T23:20:32.624Z,97487.34
2023-04-26T23:23:00.865Z,97486.91
2023-04-26T23:25:28.867Z,97492.10
2023-04-26T23:27:56.887Z,97488.87
2023-04-26T23:30:25.122Z,97487.56
2023-04-26T23:32:53.348Z,97486.52
2023-04-26T23:35:21.760Z,97490.41
2023-04-26T23:37:52.574Z,97493.83
2023-04-26T23:40:21.082Z,97490.45
2023-04-26T23:42:49.188Z,97493.91
2023-04-26T23:45:19.289Z,97495.79
2023-04-26T23:47:47.528Z,97492.39
2023-04-26T23:50:15.608Z,97494.36
2023-04-26T23:52:43.802Z,97497.36
2023-04-26T23:55:12.091Z,97497.40
2023-04-26T23:57:40.142Z,97500.66
